Ana Sayfa
METAR-TAF:

METAR-TAF

Havaalanları :

Hartness State Airport

Springfield, Vermont, Amerika Birleşik Devletleri

Enlem: 43-20-33N, Boylam: 072-31-18W, yükseklik: 175 m

Güncel hava durumu gözlemi

Rapor saat 22:54 UTC de 1 saat ve 0 dakika önce yapıldı.
Sakin rüzgar
Sıcaklık -2°C
Nem 69%
Basınç 1026 hPa
Görüş mesafesi: 16.1 km
Açık gökyüzü

METAR: KVSF 232254Z AUTO 00000KT 10SM CLR M02/M07 A3031 RMK AO2 SLP276 T10221072

Saat: 18:54 (23:54 UTC)


TAF: eksik

4.000'den fazla havaalanı için hava durumu gözlemleri ve tahminleri (METAR ve TAF raporları).

Kullanılabilir istasyonlar harita üzerinde sarı ve kırmızı noktalarla gösterilir.

İstasyonun adını görmek için fareyi noktanın üzerinde gezdirin.

Sonrasında hava gözlem ve tahminlerini görmek için tıklayın.

Haritayı değiştirmek için: yaklaştırmak için siyah artı işaretli yeşil düğmeye ve uzaklaştırmak için de eksi işaretli düğmeye hızla tıklayın; bitişik haritalar için yeşil okları kullanın.


METAR-TAF: